Paragould, Arkansas
Current Conditions -  °F | °C
As of 12:15 AM on Monday 26 Jan 2015 (Local Time) from K4M9 Reporting Station
Overcast Overcast  
Wind Chill: 29°   Ceiling: 2100
Heat Index: 37°   Visibility: 10mi
Dew Point: 32°   Wind: 13mph
Humidity: 81%   Direction: 330°NNW
Pressure: 30.01"   Gusts: 26mph
Location:  36.06°N, 90.49°W
Report Text: K4M9 260615Z AUTO 33011G23KT 10SM OVC021 03/00 A3001 RMK AO2
Loading
Personal Weather Stations






























Interactive Weather Map New forecast layout! Learn more

10-Day Weather Forecast

Advertisements
Track Severe Weather on mobile